createdAt,value
2022-09-07T00:02:07.841Z,2.53
2022-09-07T00:07:11.642Z,3.95
2022-09-07T00:12:15.418Z,4.80
2022-09-07T00:17:20.524Z,4.28
2022-09-07T00:22:24.273Z,4.72
2022-09-07T00:27:28.031Z,3.20
2022-09-07T00:32:33.184Z,4.05
2022-09-07T00:37:36.880Z,7.07
2022-09-07T00:42:40.672Z,10.73
2022-09-07T00:47:52.788Z,5.05
2022-09-07T00:53:02.719Z,7.57
2022-09-07T00:58:08.143Z,6.22
2022-09-07T01:03:15.484Z,8.65
2022-09-07T01:08:19.665Z,6.78
2022-09-07T01:13:23.594Z,7.05
2022-09-07T01:18:34.508Z,7.82
2022-09-07T01:24:12.253Z,5.15
2022-09-07T01:29:24.846Z,5.30
2022-09-07T01:34:28.624Z,5.97
2022-09-07T01:39:41.556Z,4.45
2022-09-07T01:44:51.345Z,5.85
2022-09-07T01:50:00.752Z,7.82
2022-09-07T01:55:11.679Z,8.88
2022-09-07T02:00:20.098Z,5.60
2022-09-07T02:05:29.127Z,8.90
2022-09-07T02:10:39.831Z,6.03
2022-09-07T02:15:50.544Z,6.80
2022-09-07T02:20:58.740Z,6.05
2022-09-07T02:26:04.705Z,5.45
2022-09-07T02:31:09.911Z,7.37
2022-09-07T02:36:16.664Z,5.45
2022-09-07T02:41:32.365Z,6.30
2022-09-07T02:46:56.471Z,7.12
2022-09-07T02:52:08.036Z,5.45
2022-09-07T02:57:24.032Z,6.43
2022-09-07T03:02:36.729Z,8.20
2022-09-07T03:07:46.197Z,7.37
2022-09-07T03:12:51.684Z,6.15
2022-09-07T03:17:56.827Z,5.25
2022-09-07T03:23:00.517Z,10.38
2022-09-07T03:28:04.667Z,6.53
2022-09-07T03:33:09.687Z,7.30
2022-09-07T03:38:13.726Z,8.57
2022-09-07T03:43:17.682Z,6.68
2022-09-07T03:48:22.815Z,11.68
2022-09-07T03:53:26.738Z,7.57
2022-09-07T03:58:32.203Z,8.15
2022-09-07T04:03:38.007Z,9.05
2022-09-07T04:08:43.129Z,7.10
2022-09-07T04:13:47.740Z,10.55
2022-09-07T04:18:54.715Z,7.43
2022-09-07T04:23:58.984Z,8.23
2022-09-07T04:29:04.053Z,7.93
2022-09-07T04:34:09.309Z,10.57
2022-09-07T04:39:13.217Z,8.52
2022-09-07T04:44:17.296Z,10.68
2022-09-07T04:49:22.436Z,9.20
2022-09-07T04:54:26.478Z,9.30
2022-09-07T04:59:30.284Z,8.88
2022-09-07T05:04:37.564Z,10.93
2022-09-07T05:09:41.275Z,12.05
2022-09-07T05:14:45.101Z,9.43
2022-09-07T05:19:50.429Z,9.73
2022-09-07T05:24:54.160Z,9.50
2022-09-07T05:35:06.346Z,12.82
2022-09-07T05:40:11.401Z,13.48
2022-09-07T05:45:15.875Z,12.40
2022-09-07T05:50:20.995Z,10.63
2022-09-07T05:55:31.663Z,11.88
2022-09-07T06:00:35.352Z,14.43
2022-09-07T06:05:40.399Z,19.05
2022-09-07T06:10:44.692Z,21.45
2022-09-07T06:15:48.765Z,18.23
2022-09-07T06:20:53.835Z,20.70
2022-09-07T06:25:57.556Z,17.62
2022-09-07T06:31:01.927Z,18.58
2022-09-07T06:36:09.581Z,21.45
2022-09-07T06:52:04.510Z,25.50
2022-09-07T06:57:09.512Z,34.33
2022-09-07T07:02:14.990Z,31.42
2022-09-07T07:07:20.123Z,35.75
2022-09-07T07:17:27.263Z,45.25
2022-09-07T07:22:47.660Z,37.53
2022-09-07T07:27:51.544Z,35.08
2022-09-07T07:33:15.060Z,37.33
2022-09-07T07:43:44.066Z,31.77
2022-09-07T07:48:49.470Z,29.08
2022-09-07T07:53:54.985Z,35.15
2022-09-07T07:58:58.947Z,29.65
2022-09-07T08:04:03.005Z,36.80
2022-09-07T08:09:08.048Z,31.37
2022-09-07T08:14:11.720Z,31.20
2022-09-07T08:19:15.485Z,30.05
2022-09-07T08:24:20.947Z,26.83
2022-09-07T08:29:24.840Z,21.62
2022-09-07T08:34:28.517Z,28.77
2022-09-07T08:39:33.655Z,22.17
2022-09-07T08:44:42.997Z,21.83
2022-09-07T08:49:52.204Z,22.95
2022-09-07T08:55:02.700Z,16.12
2022-09-07T09:00:09.239Z,20.65
2022-09-07T09:05:28.718Z,14.43
2022-09-07T09:10:46.881Z,14.93
2022-09-07T09:21:02.938Z,10.88
2022-09-07T09:26:13.488Z,11.77
2022-09-07T09:31:20.233Z,10.38
2022-09-07T09:36:26.569Z,10.68
2022-09-07T09:41:37.940Z,7.50
2022-09-07T09:46:41.667Z,14.27
2022-09-07T09:57:18.826Z,8.50
2022-09-07T10:07:55.270Z,5.87
2022-09-07T10:13:00.789Z,6.95
2022-09-07T10:18:09.602Z,9.65
2022-09-07T10:23:23.627Z,10.82
2022-09-07T10:29:06.388Z,9.35
2022-09-07T10:39:27.094Z,9.43
2022-09-07T10:44:47.211Z,6.30
2022-09-07T10:55:26.438Z,4.62
2022-09-07T11:00:39.360Z,5.12
2022-09-07T11:05:56.434Z,3.05
2022-09-07T11:11:10.772Z,4.12
2022-09-07T11:22:02.581Z,3.12
2022-09-07T11:27:12.104Z,5.55
2022-09-07T11:32:22.843Z,3.78
2022-09-07T11:37:31.709Z,4.07
2022-09-07T11:42:43.880Z,5.18
2022-09-07T11:47:54.396Z,2.55
2022-09-07T11:53:00.810Z,5.85
2022-09-07T11:58:29.139Z,4.43
2022-09-07T12:04:06.044Z,3.95
2022-09-07T12:09:32.008Z,3.85
2022-09-07T12:14:45.338Z,3.80
2022-09-07T12:20:11.132Z,7.78
2022-09-07T12:25:19.637Z,10.00
2022-09-07T12:30:57.832Z,5.37
2022-09-07T12:36:23.599Z,6.68
2022-09-07T12:41:42.595Z,6.68
2022-09-07T12:46:49.797Z,5.72
2022-09-07T12:52:11.290Z,2.85
2022-09-07T12:57:31.915Z,5.30
2022-09-07T13:02:57.828Z,5.30
2022-09-07T13:08:42.124Z,3.33
2022-09-07T13:14:06.228Z,4.45
2022-09-07T13:24:55.214Z,3.80
2022-09-07T13:30:04.131Z,6.40
2022-09-07T13:35:16.545Z,6.10
2022-09-07T13:40:27.040Z,4.50
2022-09-07T13:45:35.592Z,5.45
2022-09-07T13:50:46.601Z,2.97
2022-09-07T13:56:00.892Z,6.93
2022-09-07T14:01:08.243Z,4.22
2022-09-07T14:06:16.664Z,6.40
2022-09-07T14:11:25.045Z,3.53
2022-09-07T14:16:28.806Z,5.20
2022-09-07T14:21:32.673Z,7.03
2022-09-07T14:26:47.879Z,5.57
2022-09-07T14:31:52.605Z,3.60
2022-09-07T14:37:01.698Z,2.97
2022-09-07T14:42:08.075Z,4.62
2022-09-07T14:47:24.907Z,3.90
2022-09-07T14:52:38.019Z,6.03
2022-09-07T14:57:45.716Z,3.58
2022-09-07T15:02:49.465Z,3.08
2022-09-07T15:07:55.639Z,9.30
2022-09-07T15:13:02.120Z,5.60
2022-09-07T15:18:09.107Z,5.25
2022-09-07T15:23:14.961Z,4.90
2022-09-07T15:33:49.249Z,6.18
2022-09-07T15:39:00.611Z,2.45
2022-09-07T15:44:06.235Z,3.85
2022-09-07T15:49:10.320Z,5.57
2022-09-07T15:54:17.380Z,4.07
2022-09-07T15:59:22.612Z,5.62
2022-09-07T16:04:26.363Z,5.07
2022-09-07T16:09:30.127Z,2.83
2022-09-07T16:14:35.308Z,6.62
2022-09-07T16:19:40.911Z,4.12
2022-09-07T16:24:45.016Z,3.42
2022-09-07T16:29:50.916Z,5.82
2022-09-07T16:34:54.697Z,3.85
2022-09-07T16:39:58.487Z,6.10
2022-09-07T16:50:27.363Z,6.00
2022-09-07T16:55:31.308Z,4.72
2022-09-07T17:00:37.931Z,5.90
2022-09-07T17:05:42.944Z,4.40
2022-09-07T17:10:46.616Z,14.48
2022-09-07T17:15:51.646Z,5.70
2022-09-07T17:20:56.679Z,4.10
2022-09-07T17:26:06.379Z,6.27
2022-09-07T17:32:24.052Z,4.30
2022-09-07T17:36:36.782Z,7.47
2022-09-07T17:41:40.499Z,8.13
2022-09-07T17:46:45.603Z,5.50
2022-09-07T17:51:49.282Z,7.95
2022-09-07T17:56:53.015Z,5.12
2022-09-07T18:01:58.058Z,4.97
2022-09-07T18:07:01.784Z,5.70
2022-09-07T18:12:06.053Z,7.57
2022-09-07T18:17:11.209Z,8.52
2022-09-07T18:22:15.283Z,8.60
2022-09-07T18:27:21.079Z,7.00
2022-09-07T18:32:26.127Z,7.43
2022-09-07T18:37:31.787Z,8.50
2022-09-07T18:42:35.586Z,9.23
2022-09-07T18:47:40.783Z,13.02
2022-09-07T18:52:52.558Z,5.68
2022-09-07T18:57:56.890Z,6.12
2022-09-07T19:03:01.976Z,9.77
2022-09-07T19:08:05.666Z,7.35
2022-09-07T19:13:09.383Z,7.45
2022-09-07T19:18:14.722Z,7.43
2022-09-07T19:23:18.386Z,8.90
2022-09-07T19:28:22.184Z,11.40
2022-09-07T19:33:27.379Z,7.43
2022-09-07T19:38:31.204Z,11.43
2022-09-07T19:43:35.402Z,9.18
2022-09-07T19:48:40.751Z,9.18
2022-09-07T19:53:46.972Z,6.25
2022-09-07T19:58:51.184Z,8.55
2022-09-07T20:03:59.645Z,7.90
2022-09-07T20:09:03.403Z,4.47
2022-09-07T20:14:07.559Z,8.65
2022-09-07T20:19:15.036Z,10.25
2022-09-07T20:24:22.241Z,7.57
2022-09-07T20:29:28.568Z,11.02
2022-09-07T20:34:34.208Z,7.68
2022-09-07T20:39:39.540Z,6.75
2022-09-07T20:44:43.514Z,5.03
2022-09-07T20:49:48.639Z,7.07
2022-09-07T20:54:52.453Z,9.80
2022-09-07T20:59:56.202Z,6.68
2022-09-07T21:05:01.342Z,5.85
2022-09-07T21:10:06.914Z,7.03
2022-09-07T21:15:11.216Z,8.10
2022-09-07T21:20:16.500Z,4.18
2022-09-07T21:25:20.155Z,6.78
2022-09-07T21:30:24.079Z,11.43
2022-09-07T21:35:29.068Z,7.65
2022-09-07T21:40:32.740Z,9.80
2022-09-07T21:45:36.381Z,6.30
2022-09-07T21:50:41.493Z,7.60
2022-09-07T21:55:45.420Z,9.43
2022-09-07T22:00:49.174Z,7.18
2022-09-07T22:05:54.350Z,9.35
2022-09-07T22:11:05.090Z,5.68
2022-09-07T22:16:09.650Z,9.07
2022-09-07T22:21:17.469Z,8.50
2022-09-07T22:26:22.752Z,7.80
2022-09-07T22:31:28.585Z,5.50
2022-09-07T22:36:35.832Z,10.82
2022-09-07T22:41:40.478Z,6.63
2022-09-07T22:46:46.008Z,9.45
2022-09-07T22:51:51.330Z,8.35
2022-09-07T22:56:54.983Z,4.80
2022-09-07T23:01:58.669Z,10.52
2022-09-07T23:07:06.567Z,7.65
2022-09-07T23:12:10.243Z,7.12
2022-09-07T23:17:13.890Z,9.90
2022-09-07T23:22:18.909Z,6.70
2022-09-07T23:27:22.568Z,11.98
2022-09-07T23:32:26.238Z,11.48
2022-09-07T23:37:31.269Z,8.95
2022-09-07T23:42:34.923Z,10.00
2022-09-07T23:47:38.593Z,12.40
2022-09-07T23:52:43.735Z,13.52
2022-09-07T23:57:48.559Z,8.48
